Terminal Aerodrome Forecast
Issued by NWS

Home | Current Version | Previous Version | Text Only | Print | Product List | Glossary On
Versions: 1 2 3 4 5 6 7 8 9 10 11 12 13
885
FTUS42 TJSJ 211746
TAFJSJ
TAF
TJSJ 211746Z 2118/2218 07020G26KT P6SM VCSH SCT025 SCT050 SCT070
     FM212200 09008KT P6SM VCSH FEW030 SCT060
     FM221300 08013KT P6SM VCSH SCT030=

USA.gov is the U.S. government's official web portal to all federal, state and local government web resources and services.